Time;durP1;ratioP1;P1;durP2;ratioP2;P2;SDS_P1;SDS_P2;PMS_P1;PMS_P2;Temp;Humidity;BMP_temperature;BMP_pressure;BME280_temperature;BME280_humidity;BME280_pressure;Samples;Min_cycle;Max_cycle;Signal;HPM_P1;HPM_P2
2023/01/04 06:45:35;;;;;;;22.13;13.58;;;;;;;0.66;98.40;99070.80;1865104;75;28059;-58
2023/01/04 06:48:05;;;;;;;21.25;10.35;;;;;;;0.63;98.35;99067.76;1815863;78;21454;-61
2023/01/04 06:50:32;;;;;;;13.38;8.60;;;;;;;0.68;98.41;99065.34;1824496;78;21675;-59
2023/01/04 06:52:59;;;;;;;11.63;7.90;;;;;;;0.77;98.36;99061.48;1778819;80;20981;-60
2023/01/04 06:55:26;;;;;;;12.47;6.80;;;;;;;0.84;98.30;99057.03;1762936;80;20961;-62
2023/01/04 06:57:52;;;;;;;14.38;7.40;;;;;;;0.93;98.09;99054.49;1748283;82;20977;-58
2023/01/04 07:00:20;;;;;;;12.15;7.42;;;;;;;1.04;97.79;99049.91;1750786;80;20893;-60
2023/01/04 07:02:46;;;;;;;11.30;7.45;;;;;;;1.14;97.67;99050.33;1762863;80;21250;-56
2023/01/04 07:05:13;;;;;;;13.55;7.65;;;;;;;1.24;97.17;99057.33;1753004;80;21592;-57
2023/01/04 07:07:39;;;;;;;11.50;6.75;;;;;;;1.33;96.66;99052.64;1763568;79;20933;-59
2023/01/04 07:10:07;;;;;;;10.82;6.53;;;;;;;1.38;96.23;99057.61;1769908;79;20943;-59
2023/01/04 07:12:35;;;;;;;11.68;7.17;;;;;;;1.42;95.44;99050.08;1749340;82;21476;-58
2023/01/04 07:15:02;;;;;;;12.43;7.67;;;;;;;1.44;95.15;99046.72;1749625;82;21512;-62
2023/01/04 07:17:29;;;;;;;10.63;6.97;;;;;;;1.46;94.71;99047.85;1749546;81;21437;-59
2023/01/04 07:19:56;;;;;;;12.23;7.10;;;;;;;1.47;94.82;99049.45;1753903;80;21541;-60
2023/01/04 07:24:38;;;;;;;11.20;7.17;;;;;;;1.55;93.98;99059.81;1877609;76;28593;-56
2023/01/04 07:27:12;;;;;;;11.43;6.90;;;;;;;1.44;93.53;99064.41;1852861;77;20918;-60
2023/01/04 07:29:42;;;;;;;13.35;7.15;;;;;;;1.41;93.71;99065.63;1849158;77;21257;-59
2023/01/04 07:32:07;;;;;;;16.07;7.33;;;;;;;1.42;93.47;99059.81;1846370;77;20845;-61
2023/01/04 07:34:33;;;;;;;12.95;7.35;;;;;;;1.40;93.59;99062.67;1845053;77;20904;-59
2023/01/04 07:37:00;;;;;;;11.95;7.10;;;;;;;1.42;93.71;99063.78;1844818;77;20979;-58
2023/01/04 07:39:26;;;;;;;11.55;7.33;;;;;;;1.49;93.89;99052.70;1845838;77;21012;-58
2023/01/04 07:41:53;;;;;;;12.90;7.53;;;;;;;1.58;93.09;99051.48;1845887;77;21108;-58
2023/01/04 07:44:25;;;;;;;13.65;7.85;;;;;;;1.63;92.82;99062.21;1845839;77;20908;-58
2023/01/04 07:46:51;;;;;;;15.80;7.90;;;;;;;1.63;92.52;99062.21;1846110;77;20998;-60
2023/01/04 07:49:17;;;;;;;14.65;7.22;;;;;;;1.60;92.26;99070.04;1845645;77;20944;-61
2023/01/04 07:51:45;;;;;;;12.73;7.55;;;;;;;1.59;92.01;99056.55;1846022;77;20911;-59
2023/01/04 07:54:12;;;;;;;13.78;8.55;;;;;;;1.61;92.06;99058.97;1852655;77;21287;-57
2023/01/04 07:56:39;;;;;;;19.60;7.87;;;;;;;1.62;91.93;99064.06;1831209;77;20908;-61
2023/01/04 07:59:07;;;;;;;12.90;8.33;;;;;;;1.63;91.67;99065.67;1834641;77;20880;-60
2023/01/04 08:01:36;;;;;;;10.88;7.50;;;;;;;1.61;91.76;99069.53;1825925;77;20951;-62
2023/01/04 08:04:09;;;;;;;12.82;7.12;;;;;;;1.64;91.92;99063.84;1845561;77;21516;-58
2023/01/04 08:06:36;;;;;;;12.90;7.47;;;;;;;1.69;91.61;99069.33;1853202;77;21233;-58
2023/01/04 08:09:05;;;;;;;15.48;8.70;;;;;;;1.73;91.56;99066.56;1852809;77;20868;-60
2023/01/04 08:11:33;;;;;;;13.48;8.95;;;;;;;1.78;91.49;99068.89;1853051;77;20892;-61
2023/01/04 08:13:59;;;;;;;13.10;8.53;;;;;;;1.83;91.44;99065.63;1851401;77;20947;-62
2023/01/04 08:16:34;;;;;;;18.20;10.82;;;;;;;1.86;90.76;99059.94;1847347;77;21143;-69
2023/01/04 08:19:05;;;;;;;16.57;8.30;;;;;;;1.91;90.72;99060.09;1828592;77;21078;-61
2023/01/04 08:21:33;;;;;;;12.98;8.45;;;;;;;1.97;90.20;99071.17;1822637;77;20982;-60
2023/01/04 08:24:00;;;;;;;12.98;8.15;;;;;;;2.00;90.42;99064.94;1828228;78;20959;-60
2023/01/04 08:26:27;;;;;;;13.85;8.03;;;;;;;2.06;90.24;99065.94;1830762;78;20989;-62
2023/01/04 08:28:55;;;;;;;12.78;7.67;;;;;;;2.11;89.87;99063.98;1841393;77;21404;-60
2023/01/04 08:31:25;;;;;;;16.93;8.30;;;;;;;2.13;89.51;99064.08;1836705;77;21122;-59
2023/01/04 08:33:55;;;;;;;15.93;9.80;;;;;;;2.15;88.69;99062.03;1832713;78;21055;-59
2023/01/04 08:36:28;;;;;;;14.23;7.45;;;;;;;2.14;88.81;99061.75;1827398;78;21436;-61
2023/01/04 08:39:01;;;;;;;12.65;6.97;;;;;;;2.19;88.17;99071.70;1830233;77;21004;-60
2023/01/04 08:41:31;;;;;;;11.63;7.50;;;;;;;2.19;88.00;99072.48;1824752;77;21455;-61
2023/01/04 08:43:57;;;;;;;16.00;7.05;;;;;;;2.21;87.63;99075.75;1818590;78;21263;-58
2023/01/04 08:46:24;;;;;;;14.00;7.72;;;;;;;2.26;87.28;99077.23;1801372;79;21423;-57
2023/01/04 08:48:51;;;;;;;15.23;7.85;;;;;;;2.30;86.88;99088.20;1815860;78;20939;-58
2023/01/04 08:51:18;;;;;;;11.55;8.63;;;;;;;2.30;86.43;99070.52;1817218;78;20968;-60
2023/01/04 08:53:46;;;;;;;9.70;6.70;;;;;;;2.31;86.60;99069.48;1824082;78;20878;-58
2023/01/04 08:56:14;;;;;;;12.03;6.92;;;;;;;2.34;86.03;99066.92;1834472;78;20996;-59
2023/01/04 08:58:41;;;;;;;13.48;8.05;;;;;;;2.35;85.89;99062.77;1837123;78;21447;-58
2023/01/04 09:01:10;;;;;;;11.78;7.37;;;;;;;2.39;85.26;99071.08;1831704;77;20935;-60
2023/01/04 09:03:37;;;;;;;13.30;7.20;;;;;;;2.39;85.30;99069.25;1831976;77;20869;-60
2023/01/04 09:06:13;;;;;;;10.63;7.65;;;;;;;2.38;85.05;99062.32;1817173;78;21427;-60
2023/01/04 09:08:41;;;;;;;14.35;7.45;;;;;;;2.36;85.14;99052.47;1814474;78;21744;-58
2023/01/04 09:11:15;;;;;;;11.60;7.45;;;;;;;2.39;85.08;99053.89;1796290;80;20911;-60
2023/01/04 09:13:42;;;;;;;13.00;7.55;;;;;;;2.41;84.44;99049.19;1801510;77;20892;-61
2023/01/04 09:16:11;;;;;;;14.78;7.47;;;;;;;2.43;84.75;99057.22;1837289;78;20967;-61
2023/01/04 09:18:38;;;;;;;11.90;7.40;;;;;;;2.52;84.52;99055.15;1841128;78;20975;-58
2023/01/04 09:21:06;;;;;;;12.28;7.05;;;;;;;2.61;84.54;99051.22;1840463;77;21911;-57
2023/01/04 09:23:34;;;;;;;8.68;6.83;;;;;;;2.68;83.97;99044.87;1833090;77;20852;-60
2023/01/04 09:26:17;;;;;;;14.93;6.92;;;;;;;2.74;82.95;99037.89;1811985;79;20926;-58
2023/01/04 09:28:44;;;;;;;11.10;6.35;;;;;;;2.76;81.98;99043.77;1817988;77;21513;-57
2023/01/04 09:31:13;;;;;;;12.13;5.70;;;;;;;2.78;81.71;99047.01;1820655;77;20999;-59
2023/01/04 09:33:41;;;;;;;11.80;5.75;;;;;;;2.79;81.28;99049.97;1808730;78;21493;-57
2023/01/04 09:36:08;;;;;;;9.35;5.35;;;;;;;2.76;81.04;99053.85;1818551;78;21059;-61
